sensor_id;sensor_type;location;lat;lon;timestamp;P1;durP1;ratioP1;P2;durP2;ratioP2
23990;SDS011;12205;50.600;4.608;2022-08-01T00:02:21;17.90;;;3.08;;
23990;SDS011;12205;50.600;4.608;2022-08-01T00:04:48;7.22;;;2.17;;
23990;SDS011;12205;50.600;4.608;2022-08-01T00:07:15;13.07;;;2.70;;
23990;SDS011;12205;50.600;4.608;2022-08-01T00:09:42;16.17;;;3.67;;
23990;SDS011;12205;50.600;4.608;2022-08-01T00:12:09;8.27;;;2.42;;
23990;SDS011;12205;50.600;4.608;2022-08-01T00:14:37;13.02;;;4.10;;
23990;SDS011;12205;50.600;4.608;2022-08-01T00:17:04;6.28;;;1.70;;
23990;SDS011;12205;50.600;4.608;2022-08-01T00:19:33;7.78;;;2.45;;
23990;SDS011;12205;50.600;4.608;2022-08-01T00:22:01;10.02;;;2.65;;
23990;SDS011;12205;50.600;4.608;2022-08-01T00:24:28;12.40;;;2.67;;
23990;SDS011;12205;50.600;4.608;2022-08-01T00:26:55;8.77;;;2.47;;
23990;SDS011;12205;50.600;4.608;2022-08-01T00:29:22;13.68;;;2.85;;
23990;SDS011;12205;50.600;4.608;2022-08-01T00:31:49;10.13;;;2.22;;
23990;SDS011;12205;50.600;4.608;2022-08-01T00:34:17;6.30;;;2.20;;
23990;SDS011;12205;50.600;4.608;2022-08-01T00:36:45;17.88;;;5.38;;
23990;SDS011;12205;50.600;4.608;2022-08-01T00:39:13;9.60;;;2.22;;
23990;SDS011;12205;50.600;4.608;2022-08-01T00:41:40;7.82;;;2.33;;
23990;SDS011;12205;50.600;4.608;2022-08-01T00:44:07;7.72;;;1.95;;
23990;SDS011;12205;50.600;4.608;2022-08-01T00:46:34;8.68;;;2.65;;
23990;SDS011;12205;50.600;4.608;2022-08-01T00:49:01;16.90;;;3.85;;
23990;SDS011;12205;50.600;4.608;2022-08-01T00:51:29;7.20;;;2.40;;
23990;SDS011;12205;50.600;4.608;2022-08-01T00:53:59;14.90;;;3.42;;
23990;SDS011;12205;50.600;4.608;2022-08-01T00:56:27;14.98;;;3.17;;
23990;SDS011;12205;50.600;4.608;2022-08-01T00:58:55;27.70;;;7.95;;
23990;SDS011;12205;50.600;4.608;2022-08-01T01:01:22;7.38;;;2.22;;
23990;SDS011;12205;50.600;4.608;2022-08-01T01:03:50;7.95;;;2.47;;
23990;SDS011;12205;50.600;4.608;2022-08-01T01:06:31;12.43;;;3.17;;
23990;SDS011;12205;50.600;4.608;2022-08-01T01:09:15;8.23;;;2.50;;
23990;SDS011;12205;50.600;4.608;2022-08-01T01:11:57;13.80;;;3.30;;
23990;SDS011;12205;50.600;4.608;2022-08-01T01:14:41;9.43;;;3.15;;
23990;SDS011;12205;50.600;4.608;2022-08-01T01:17:18;10.18;;;3.15;;
23990;SDS011;12205;50.600;4.608;2022-08-01T01:19:54;9.77;;;2.50;;
23990;SDS011;12205;50.600;4.608;2022-08-01T01:22:31;8.93;;;2.75;;
23990;SDS011;12205;50.600;4.608;2022-08-01T01:25:32;7.72;;;2.55;;
23990;SDS011;12205;50.600;4.608;2022-08-01T01:28:29;9.45;;;2.70;;
23990;SDS011;12205;50.600;4.608;2022-08-01T01:31:08;8.75;;;2.42;;
23990;SDS011;12205;50.600;4.608;2022-08-01T01:33:39;15.30;;;3.40;;
23990;SDS011;12205;50.600;4.608;2022-08-01T01:36:08;9.10;;;3.00;;
23990;SDS011;12205;50.600;4.608;2022-08-01T01:41:09;10.18;;;2.80;;
23990;SDS011;12205;50.600;4.608;2022-08-01T01:43:40;6.78;;;2.33;;
23990;SDS011;12205;50.600;4.608;2022-08-01T01:46:10;15.45;;;3.63;;
23990;SDS011;12205;50.600;4.608;2022-08-01T01:48:41;8.00;;;2.72;;
23990;SDS011;12205;50.600;4.608;2022-08-01T01:51:12;14.18;;;3.05;;
23990;SDS011;12205;50.600;4.608;2022-08-01T01:53:41;16.98;;;5.07;;
23990;SDS011;12205;50.600;4.608;2022-08-01T01:56:11;8.50;;;2.70;;
23990;SDS011;12205;50.600;4.608;2022-08-01T01:58:43;9.90;;;3.20;;
23990;SDS011;12205;50.600;4.608;2022-08-01T02:01:15;14.02;;;3.25;;
23990;SDS011;12205;50.600;4.608;2022-08-01T02:03:45;9.60;;;2.70;;
23990;SDS011;12205;50.600;4.608;2022-08-01T02:06:15;18.80;;;4.05;;
23990;SDS011;12205;50.600;4.608;2022-08-01T02:08:44;11.13;;;2.97;;
23990;SDS011;12205;50.600;4.608;2022-08-01T02:11:14;9.32;;;2.88;;
23990;SDS011;12205;50.600;4.608;2022-08-01T02:13:44;7.60;;;2.40;;
23990;SDS011;12205;50.600;4.608;2022-08-01T02:16:21;8.07;;;2.40;;
23990;SDS011;12205;50.600;4.608;2022-08-01T02:18:52;13.18;;;3.13;;
23990;SDS011;12205;50.600;4.608;2022-08-01T02:21:21;23.65;;;7.40;;
23990;SDS011;12205;50.600;4.608;2022-08-01T02:23:58;15.90;;;4.10;;
23990;SDS011;12205;50.600;4.608;2022-08-01T02:26:35;17.20;;;5.00;;
23990;SDS011;12205;50.600;4.608;2022-08-01T02:29:06;6.43;;;2.30;;
23990;SDS011;12205;50.600;4.608;2022-08-01T02:31:41;8.38;;;3.00;;
23990;SDS011;12205;50.600;4.608;2022-08-01T02:34:13;18.95;;;4.25;;
23990;SDS011;12205;50.600;4.608;2022-08-01T02:36:44;11.48;;;3.22;;
23990;SDS011;12205;50.600;4.608;2022-08-01T02:39:15;15.27;;;3.50;;
23990;SDS011;12205;50.600;4.608;2022-08-01T02:41:47;9.40;;;2.97;;
23990;SDS011;12205;50.600;4.608;2022-08-01T02:44:23;10.07;;;3.10;;
23990;SDS011;12205;50.600;4.608;2022-08-01T02:46:58;18.33;;;4.10;;
23990;SDS011;12205;50.600;4.608;2022-08-01T02:49:29;14.68;;;3.88;;
23990;SDS011;12205;50.600;4.608;2022-08-01T02:51:59;13.48;;;3.63;;
23990;SDS011;12205;50.600;4.608;2022-08-01T02:54:33;23.17;;;6.32;;
23990;SDS011;12205;50.600;4.608;2022-08-01T02:57:02;11.23;;;3.55;;
23990;SDS011;12205;50.600;4.608;2022-08-01T02:59:32;11.25;;;3.65;;
23990;SDS011;12205;50.600;4.608;2022-08-01T03:02:05;15.32;;;4.00;;
23990;SDS011;12205;50.600;4.608;2022-08-01T03:04:35;16.42;;;4.28;;
23990;SDS011;12205;50.600;4.608;2022-08-01T03:07:07;11.00;;;3.45;;
23990;SDS011;12205;50.600;4.608;2022-08-01T03:09:37;17.00;;;4.25;;
23990;SDS011;12205;50.600;4.608;2022-08-01T03:12:09;9.70;;;3.20;;
23990;SDS011;12205;50.600;4.608;2022-08-01T03:14:40;17.27;;;4.38;;
23990;SDS011;12205;50.600;4.608;2022-08-01T03:17:12;14.65;;;3.58;;
23990;SDS011;12205;50.600;4.608;2022-08-01T03:19:42;16.85;;;4.10;;
23990;SDS011;12205;50.600;4.608;2022-08-01T03:22:12;10.13;;;3.28;;
23990;SDS011;12205;50.600;4.608;2022-08-01T03:24:42;9.70;;;3.15;;
23990;SDS011;12205;50.600;4.608;2022-08-01T03:27:14;24.92;;;6.88;;
23990;SDS011;12205;50.600;4.608;2022-08-01T03:29:42;16.42;;;3.90;;
23990;SDS011;12205;50.600;4.608;2022-08-01T03:32:12;9.32;;;3.03;;
23990;SDS011;12205;50.600;4.608;2022-08-01T03:34:42;7.10;;;2.50;;
23990;SDS011;12205;50.600;4.608;2022-08-01T03:37:11;13.27;;;3.85;;
23990;SDS011;12205;50.600;4.608;2022-08-01T03:39:50;15.77;;;4.30;;
23990;SDS011;12205;50.600;4.608;2022-08-01T03:42:26;11.07;;;3.65;;
23990;SDS011;12205;50.600;4.608;2022-08-01T03:45:06;19.33;;;4.82;;
23990;SDS011;12205;50.600;4.608;2022-08-01T03:47:39;17.33;;;4.35;;
23990;SDS011;12205;50.600;4.608;2022-08-01T03:50:10;23.95;;;5.28;;
23990;SDS011;12205;50.600;4.608;2022-08-01T03:52:41;19.65;;;4.88;;
23990;SDS011;12205;50.600;4.608;2022-08-01T03:55:12;22.23;;;5.07;;
23990;SDS011;12205;50.600;4.608;2022-08-01T03:57:42;22.52;;;5.20;;
23990;SDS011;12205;50.600;4.608;2022-08-01T04:00:11;29.48;;;7.80;;
23990;SDS011;12205;50.600;4.608;2022-08-01T04:02:45;24.08;;;5.10;;
23990;SDS011;12205;50.600;4.608;2022-08-01T04:05:13;16.67;;;4.50;;
23990;SDS011;12205;50.600;4.608;2022-08-01T04:07:45;23.88;;;4.47;;
23990;SDS011;12205;50.600;4.608;2022-08-01T04:10:20;20.52;;;4.93;;
23990;SDS011;12205;50.600;4.608;2022-08-01T04:12:47;20.65;;;4.78;;
23990;SDS011;12205;50.600;4.608;2022-08-01T04:15:15;22.17;;;5.07;;
23990;SDS011;12205;50.600;4.608;2022-08-01T04:17:42;18.08;;;4.95;;
23990;SDS011;12205;50.600;4.608;2022-08-01T04:20:11;16.98;;;5.07;;
23990;SDS011;12205;50.600;4.608;2022-08-01T04:22:38;22.20;;;6.18;;
23990;SDS011;12205;50.600;4.608;2022-08-01T04:25:07;18.40;;;4.55;;
23990;SDS011;12205;50.600;4.608;2022-08-01T04:27:42;24.30;;;7.05;;
23990;SDS011;12205;50.600;4.608;2022-08-01T04:30:13;20.92;;;5.05;;
23990;SDS011;12205;50.600;4.608;2022-08-01T04:32:45;20.48;;;5.20;;
23990;SDS011;12205;50.600;4.608;2022-08-01T04:35:15;17.45;;;5.10;;
23990;SDS011;12205;50.600;4.608;2022-08-01T04:37:46;24.35;;;5.30;;
23990;SDS011;12205;50.600;4.608;2022-08-01T04:40:16;20.70;;;5.03;;
23990;SDS011;12205;50.600;4.608;2022-08-01T04:42:46;20.33;;;5.50;;
23990;SDS011;12205;50.600;4.608;2022-08-01T04:45:16;23.95;;;5.65;;
23990;SDS011;12205;50.600;4.608;2022-08-01T04:47:43;24.02;;;6.50;;
23990;SDS011;12205;50.600;4.608;2022-08-01T04:50:14;26.87;;;6.90;;
23990;SDS011;12205;50.600;4.608;2022-08-01T04:52:41;25.70;;;6.57;;
23990;SDS011;12205;50.600;4.608;2022-08-01T04:55:08;34.88;;;9.25;;
23990;SDS011;12205;50.600;4.608;2022-08-01T04:57:37;25.33;;;6.22;;
23990;SDS011;12205;50.600;4.608;2022-08-01T05:00:07;26.63;;;7.28;;
23990;SDS011;12205;50.600;4.608;2022-08-01T05:02:35;26.95;;;6.78;;
23990;SDS011;12205;50.600;4.608;2022-08-01T05:05:05;27.40;;;7.00;;
23990;SDS011;12205;50.600;4.608;2022-08-01T05:07:33;25.77;;;6.82;;
23990;SDS011;12205;50.600;4.608;2022-08-01T05:10:01;24.88;;;7.22;;
23990;SDS011;12205;50.600;4.608;2022-08-01T05:12:29;24.95;;;6.75;;
23990;SDS011;12205;50.600;4.608;2022-08-01T05:14:57;33.25;;;7.53;;
23990;SDS011;12205;50.600;4.608;2022-08-01T05:17:25;34.28;;;9.93;;
23990;SDS011;12205;50.600;4.608;2022-08-01T05:19:52;32.70;;;7.60;;
23990;SDS011;12205;50.600;4.608;2022-08-01T05:22:21;26.33;;;7.20;;
23990;SDS011;12205;50.600;4.608;2022-08-01T05:24:50;29.67;;;7.63;;
23990;SDS011;12205;50.600;4.608;2022-08-01T05:27:18;26.38;;;7.22;;
23990;SDS011;12205;50.600;4.608;2022-08-01T05:29:45;26.35;;;7.03;;
23990;SDS011;12205;50.600;4.608;2022-08-01T05:32:12;27.33;;;6.80;;
23990;SDS011;12205;50.600;4.608;2022-08-01T05:34:40;24.17;;;6.80;;
23990;SDS011;12205;50.600;4.608;2022-08-01T05:37:07;28.42;;;7.15;;
23990;SDS011;12205;50.600;4.608;2022-08-01T05:39:35;31.52;;;9.43;;
23990;SDS011;12205;50.600;4.608;2022-08-01T05:42:06;26.58;;;7.18;;
23990;SDS011;12205;50.600;4.608;2022-08-01T05:44:33;28.65;;;7.43;;
23990;SDS011;12205;50.600;4.608;2022-08-01T05:47:00;21.95;;;6.47;;
23990;SDS011;12205;50.600;4.608;2022-08-01T05:49:28;23.80;;;6.47;;
23990;SDS011;12205;50.600;4.608;2022-08-01T05:51:55;24.33;;;6.57;;
23990;SDS011;12205;50.600;4.608;2022-08-01T05:54:22;21.25;;;5.97;;
23990;SDS011;12205;50.600;4.608;2022-08-01T05:56:51;30.42;;;7.03;;
23990;SDS011;12205;50.600;4.608;2022-08-01T05:59:18;23.58;;;6.70;;
23990;SDS011;12205;50.600;4.608;2022-08-01T06:01:45;25.80;;;6.70;;
23990;SDS011;12205;50.600;4.608;2022-08-01T06:04:13;22.10;;;6.50;;
23990;SDS011;12205;50.600;4.608;2022-08-01T06:06:40;27.73;;;8.63;;
23990;SDS011;12205;50.600;4.608;2022-08-01T06:09:07;30.17;;;7.15;;
23990;SDS011;12205;50.600;4.608;2022-08-01T06:11:34;26.70;;;6.90;;
23990;SDS011;12205;50.600;4.608;2022-08-01T06:14:03;21.35;;;6.60;;
23990;SDS011;12205;50.600;4.608;2022-08-01T06:16:31;19.42;;;6.30;;
23990;SDS011;12205;50.600;4.608;2022-08-01T06:18:58;19.35;;;5.82;;
23990;SDS011;12205;50.600;4.608;2022-08-01T06:21:25;22.80;;;6.90;;
23990;SDS011;12205;50.600;4.608;2022-08-01T06:23:52;21.25;;;6.43;;
23990;SDS011;12205;50.600;4.608;2022-08-01T06:26:20;23.00;;;6.47;;
23990;SDS011;12205;50.600;4.608;2022-08-01T06:28:47;28.80;;;9.30;;
23990;SDS011;12205;50.600;4.608;2022-08-01T06:31:15;19.85;;;6.40;;
23990;SDS011;12205;50.600;4.608;2022-08-01T06:33:42;18.50;;;5.63;;
23990;SDS011;12205;50.600;4.608;2022-08-01T06:36:10;22.30;;;6.32;;
23990;SDS011;12205;50.600;4.608;2022-08-01T06:38:37;23.75;;;6.32;;
23990;SDS011;12205;50.600;4.608;2022-08-01T06:41:04;21.77;;;5.90;;
23990;SDS011;12205;50.600;4.608;2022-08-01T06:43:32;17.63;;;4.97;;
23990;SDS011;12205;50.600;4.608;2022-08-01T06:45:59;19.45;;;5.45;;
23990;SDS011;12205;50.600;4.608;2022-08-01T06:48:27;17.90;;;4.93;;
23990;SDS011;12205;50.600;4.608;2022-08-01T06:50:55;26.48;;;8.80;;
23990;SDS011;12205;50.600;4.608;2022-08-01T06:53:34;16.30;;;5.05;;
23990;SDS011;12205;50.600;4.608;2022-08-01T06:56:02;16.00;;;5.05;;
23990;SDS011;12205;50.600;4.608;2022-08-01T06:58:31;16.23;;;4.70;;
23990;SDS011;12205;50.600;4.608;2022-08-01T07:00:59;13.77;;;4.72;;
23990;SDS011;12205;50.600;4.608;2022-08-01T07:03:28;18.92;;;5.38;;
23990;SDS011;12205;50.600;4.608;2022-08-01T07:05:55;20.00;;;5.00;;
23990;SDS011;12205;50.600;4.608;2022-08-01T07:08:22;13.98;;;4.32;;
23990;SDS011;12205;50.600;4.608;2022-08-01T07:10:49;10.27;;;3.80;;
23990;SDS011;12205;50.600;4.608;2022-08-01T07:13:17;10.40;;;3.50;;
23990;SDS011;12205;50.600;4.608;2022-08-01T07:15:46;17.48;;;5.25;;
23990;SDS011;12205;50.600;4.608;2022-08-01T07:18:13;16.90;;;5.78;;
23990;SDS011;12205;50.600;4.608;2022-08-01T07:20:42;9.75;;;3.40;;
23990;SDS011;12205;50.600;4.608;2022-08-01T07:23:11;19.95;;;4.88;;
23990;SDS011;12205;50.600;4.608;2022-08-01T07:25:38;17.63;;;4.65;;
23990;SDS011;12205;50.600;4.608;2022-08-01T07:28:05;12.90;;;3.70;;
23990;SDS011;12205;50.600;4.608;2022-08-01T07:30:33;9.73;;;3.22;;
23990;SDS011;12205;50.600;4.608;2022-08-01T07:33:00;14.93;;;4.05;;
23990;SDS011;12205;50.600;4.608;2022-08-01T07:35:30;8.85;;;3.03;;
23990;SDS011;12205;50.600;4.608;2022-08-01T07:37:58;10.35;;;3.58;;
23990;SDS011;12205;50.600;4.608;2022-08-01T07:40:25;22.10;;;7.53;;
23990;SDS011;12205;50.600;4.608;2022-08-01T07:42:52;12.40;;;3.72;;
23990;SDS011;12205;50.600;4.608;2022-08-01T07:45:20;14.10;;;4.13;;
23990;SDS011;12205;50.600;4.608;2022-08-01T07:47:47;10.00;;;3.85;;
23990;SDS011;12205;50.600;4.608;2022-08-01T07:50:15;14.68;;;4.20;;
23990;SDS011;12205;50.600;4.608;2022-08-01T07:52:42;13.30;;;4.28;;
23990;SDS011;12205;50.600;4.608;2022-08-01T07:55:12;18.35;;;5.80;;
23990;SDS011;12205;50.600;4.608;2022-08-01T07:57:39;16.33;;;5.03;;
23990;SDS011;12205;50.600;4.608;2022-08-01T08:00:09;18.33;;;5.15;;
23990;SDS011;12205;50.600;4.608;2022-08-01T08:02:38;17.98;;;6.03;;
23990;SDS011;12205;50.600;4.608;2022-08-01T08:05:05;20.45;;;5.57;;
23990;SDS011;12205;50.600;4.608;2022-08-01T08:07:33;12.10;;;4.35;;
23990;SDS011;12205;50.600;4.608;2022-08-01T08:10:01;20.00;;;5.50;;
23990;SDS011;12205;50.600;4.608;2022-08-01T08:12:30;18.08;;;5.18;;
23990;SDS011;12205;50.600;4.608;2022-08-01T08:14:58;20.83;;;5.38;;
23990;SDS011;12205;50.600;4.608;2022-08-01T08:17:26;13.80;;;4.53;;
23990;SDS011;12205;50.600;4.608;2022-08-01T08:19:54;9.65;;;3.72;;
23990;SDS011;12205;50.600;4.608;2022-08-01T08:22:21;12.43;;;3.92;;
23990;SDS011;12205;50.600;4.608;2022-08-01T08:24:48;12.32;;;3.95;;
23990;SDS011;12205;50.600;4.608;2022-08-01T08:27:15;9.43;;;3.45;;
23990;SDS011;12205;50.600;4.608;2022-08-01T08:29:44;20.30;;;5.90;;
23990;SDS011;12205;50.600;4.608;2022-08-01T08:32:11;13.00;;;3.42;;
23990;SDS011;12205;50.600;4.608;2022-08-01T08:34:39;8.68;;;2.90;;
23990;SDS011;12205;50.600;4.608;2022-08-01T08:37:06;7.40;;;2.67;;
23990;SDS011;12205;50.600;4.608;2022-08-01T08:39:33;8.55;;;3.13;;
23990;SDS011;12205;50.600;4.608;2022-08-01T08:42:01;6.68;;;2.70;;
23990;SDS011;12205;50.600;4.608;2022-08-01T08:44:33;8.40;;;2.92;;
23990;SDS011;12205;50.600;4.608;2022-08-01T08:47:02;7.35;;;2.58;;
23990;SDS011;12205;50.600;4.608;2022-08-01T08:49:31;7.93;;;2.72;;
23990;SDS011;12205;50.600;4.608;2022-08-01T08:52:00;16.45;;;5.15;;
23990;SDS011;12205;50.600;4.608;2022-08-01T08:54:29;13.02;;;2.90;;
23990;SDS011;12205;50.600;4.608;2022-08-01T08:56:59;15.57;;;3.30;;
23990;SDS011;12205;50.600;4.608;2022-08-01T08:59:27;11.93;;;2.92;;
23990;SDS011;12205;50.600;4.608;2022-08-01T09:01:55;7.88;;;2.70;;
23990;SDS011;12205;50.600;4.608;2022-08-01T09:04:24;8.15;;;2.53;;
23990;SDS011;12205;50.600;4.608;2022-08-01T09:06:53;10.18;;;2.72;;
23990;SDS011;12205;50.600;4.608;2022-08-01T09:09:21;10.07;;;2.60;;
23990;SDS011;12205;50.600;4.608;2022-08-01T09:11:49;10.40;;;3.00;;
23990;SDS011;12205;50.600;4.608;2022-08-01T09:14:18;6.97;;;2.08;;
23990;SDS011;12205;50.600;4.608;2022-08-01T09:16:58;7.55;;;2.53;;
23990;SDS011;12205;50.600;4.608;2022-08-01T09:19:35;15.55;;;4.80;;
23990;SDS011;12205;50.600;4.608;2022-08-01T09:22:06;12.70;;;3.20;;
23990;SDS011;12205;50.600;4.608;2022-08-01T09:24:35;6.87;;;2.37;;
23990;SDS011;12205;50.600;4.608;2022-08-01T09:27:14;6.63;;;2.25;;
23990;SDS011;12205;50.600;4.608;2022-08-01T09:29:48;4.60;;;1.90;;
23990;SDS011;12205;50.600;4.608;2022-08-01T09:32:19;5.85;;;1.80;;
23990;SDS011;12205;50.600;4.608;2022-08-01T09:34:48;6.75;;;1.90;;
23990;SDS011;12205;50.600;4.608;2022-08-01T09:37:15;10.95;;;2.50;;
23990;SDS011;12205;50.600;4.608;2022-08-01T09:39:55;5.80;;;2.10;;
23990;SDS011;12205;50.600;4.608;2022-08-01T09:42:26;4.20;;;1.65;;
23990;SDS011;12205;50.600;4.608;2022-08-01T09:44:54;5.72;;;2.05;;
23990;SDS011;12205;50.600;4.608;2022-08-01T09:47:21;4.43;;;1.63;;
23990;SDS011;12205;50.600;4.608;2022-08-01T09:50:08;6.38;;;1.48;;
23990;SDS011;12205;50.600;4.608;2022-08-01T09:52:35;11.80;;;3.10;;
23990;SDS011;12205;50.600;4.608;2022-08-01T09:55:05;6.15;;;1.83;;
23990;SDS011;12205;50.600;4.608;2022-08-01T09:57:33;6.20;;;2.10;;
23990;SDS011;12205;50.600;4.608;2022-08-01T10:00:01;7.35;;;2.08;;
23990;SDS011;12205;50.600;4.608;2022-08-01T10:02:40;10.18;;;2.60;;
23990;SDS011;12205;50.600;4.608;2022-08-01T10:05:09;8.07;;;2.67;;
23990;SDS011;12205;50.600;4.608;2022-08-01T10:07:54;9.70;;;2.67;;
23990;SDS011;12205;50.600;4.608;2022-08-01T10:10:23;16.70;;;4.35;;
23990;SDS011;12205;50.600;4.608;2022-08-01T10:12:51;6.63;;;1.77;;
23990;SDS011;12205;50.600;4.608;2022-08-01T10:15:18;5.57;;;1.92;;
23990;SDS011;12205;50.600;4.608;2022-08-01T10:17:47;5.35;;;1.80;;
23990;SDS011;12205;50.600;4.608;2022-08-01T10:20:22;6.35;;;1.92;;
23990;SDS011;12205;50.600;4.608;2022-08-01T10:22:53;7.80;;;2.65;;
23990;SDS011;12205;50.600;4.608;2022-08-01T10:25:21;19.70;;;6.05;;
23990;SDS011;12205;50.600;4.608;2022-08-01T10:27:51;9.88;;;1.83;;
23990;SDS011;12205;50.600;4.608;2022-08-01T10:30:21;7.45;;;2.20;;
23990;SDS011;12205;50.600;4.608;2022-08-01T10:32:49;5.28;;;1.73;;
23990;SDS011;12205;50.600;4.608;2022-08-01T10:35:18;6.25;;;1.95;;
23990;SDS011;12205;50.600;4.608;2022-08-01T10:37:47;5.53;;;1.80;;
23990;SDS011;12205;50.600;4.608;2022-08-01T10:40:16;6.07;;;1.73;;
23990;SDS011;12205;50.600;4.608;2022-08-01T10:42:44;5.45;;;1.73;;
23990;SDS011;12205;50.600;4.608;2022-08-01T10:45:12;5.68;;;1.88;;
23990;SDS011;12205;50.600;4.608;2022-08-01T10:47:42;14.45;;;3.70;;
23990;SDS011;12205;50.600;4.608;2022-08-01T10:50:21;5.95;;;1.92;;
23990;SDS011;12205;50.600;4.608;2022-08-01T10:53:13;21.13;;;5.90;;
23990;SDS011;12205;50.600;4.608;2022-08-01T10:55:46;5.60;;;2.10;;
23990;SDS011;12205;50.600;4.608;2022-08-01T10:58:24;13.73;;;4.50;;
23990;SDS011;12205;50.600;4.608;2022-08-01T11:01:14;6.25;;;2.25;;
23990;SDS011;12205;50.600;4.608;2022-08-01T11:04:05;12.13;;;4.68;;
23990;SDS011;12205;50.600;4.608;2022-08-01T11:09:39;19.58;;;5.78;;
23990;SDS011;12205;50.600;4.608;2022-08-01T11:12:10;11.85;;;3.05;;
23990;SDS011;12205;50.600;4.608;2022-08-01T11:17:54;8.93;;;2.60;;
23990;SDS011;12205;50.600;4.608;2022-08-01T11:20:22;22.25;;;6.75;;
23990;SDS011;12205;50.600;4.608;2022-08-01T11:28:39;6.50;;;1.83;;
23990;SDS011;12205;50.600;4.608;2022-08-01T11:31:25;18.42;;;5.28;;
23990;SDS011;12205;50.600;4.608;2022-08-01T11:33:55;9.52;;;2.90;;
23990;SDS011;12205;50.600;4.608;2022-08-01T11:36:23;7.10;;;2.15;;
23990;SDS011;12205;50.600;4.608;2022-08-01T11:39:10;7.78;;;2.47;;
23990;SDS011;12205;50.600;4.608;2022-08-01T11:41:48;8.15;;;2.40;;
23990;SDS011;12205;50.600;4.608;2022-08-01T11:44:21;8.05;;;2.38;;
23990;SDS011;12205;50.600;4.608;2022-08-01T11:46:58;6.45;;;2.20;;
23990;SDS011;12205;50.600;4.608;2022-08-01T11:49:33;7.47;;;2.38;;
23990;SDS011;12205;50.600;4.608;2022-08-01T11:52:12;16.95;;;4.50;;
23990;SDS011;12205;50.600;4.608;2022-08-01T11:54:51;9.73;;;2.92;;
23990;SDS011;12205;50.600;4.608;2022-08-01T11:57:22;18.60;;;4.93;;
23990;SDS011;12205;50.600;4.608;2022-08-01T11:59:53;24.88;;;4.95;;
23990;SDS011;12205;50.600;4.608;2022-08-01T12:02:24;9.38;;;2.75;;
23990;SDS011;12205;50.600;4.608;2022-08-01T12:04:54;8.52;;;2.42;;
23990;SDS011;12205;50.600;4.608;2022-08-01T12:07:23;10.02;;;2.65;;
23990;SDS011;12205;50.600;4.608;2022-08-01T12:09:57;32.05;;;9.55;;
23990;SDS011;12205;50.600;4.608;2022-08-01T12:12:28;8.05;;;2.55;;
23990;SDS011;12205;50.600;4.608;2022-08-01T12:15:00;15.40;;;3.65;;
23990;SDS011;12205;50.600;4.608;2022-08-01T12:17:32;7.88;;;2.28;;
23990;SDS011;12205;50.600;4.608;2022-08-01T12:20:02;8.93;;;3.00;;
23990;SDS011;12205;50.600;4.608;2022-08-01T12:22:33;8.73;;;2.63;;
23990;SDS011;12205;50.600;4.608;2022-08-01T12:25:07;18.48;;;4.38;;
23990;SDS011;12205;50.600;4.608;2022-08-01T12:27:39;8.48;;;2.72;;
23990;SDS011;12205;50.600;4.608;2022-08-01T12:30:11;14.23;;;3.45;;
23990;SDS011;12205;50.600;4.608;2022-08-01T12:32:41;5.07;;;1.80;;
23990;SDS011;12205;50.600;4.608;2022-08-01T12:35:11;6.67;;;2.07;;
23990;SDS011;12205;50.600;4.608;2022-08-01T12:37:41;13.13;;;3.28;;
23990;SDS011;12205;50.600;4.608;2022-08-01T12:40:11;4.97;;;1.50;;
23990;SDS011;12205;50.600;4.608;2022-08-01T12:42:43;10.70;;;3.65;;
23990;SDS011;12205;50.600;4.608;2022-08-01T12:45:14;7.55;;;1.95;;
23990;SDS011;12205;50.600;4.608;2022-08-01T12:47:44;4.68;;;1.40;;
23990;SDS011;12205;50.600;4.608;2022-08-01T12:50:14;4.25;;;1.17;;
23990;SDS011;12205;50.600;4.608;2022-08-01T12:52:44;3.75;;;1.33;;
23990;SDS011;12205;50.600;4.608;2022-08-01T12:55:13;5.93;;;1.20;;
23990;SDS011;12205;50.600;4.608;2022-08-01T12:57:45;3.10;;;1.13;;
23990;SDS011;12205;50.600;4.608;2022-08-01T13:00:18;4.95;;;1.23;;
23990;SDS011;12205;50.600;4.608;2022-08-01T13:02:48;4.22;;;0.95;;
23990;SDS011;12205;50.600;4.608;2022-08-01T13:05:26;5.30;;;1.17;;
23990;SDS011;12205;50.600;4.608;2022-08-01T13:07:54;4.32;;;1.23;;
23990;SDS011;12205;50.600;4.608;2022-08-01T13:10:25;9.75;;;3.17;;
23990;SDS011;12205;50.600;4.608;2022-08-01T13:12:57;3.17;;;1.13;;
23990;SDS011;12205;50.600;4.608;2022-08-01T13:15:26;3.33;;;1.00;;
23990;SDS011;12205;50.600;4.608;2022-08-01T13:17:58;3.63;;;1.35;;
23990;SDS011;12205;50.600;4.608;2022-08-01T13:20:29;3.47;;;1.17;;
23990;SDS011;12205;50.600;4.608;2022-08-01T13:23:10;5.45;;;1.63;;
23990;SDS011;12205;50.600;4.608;2022-08-01T13:25:46;3.30;;;1.10;;
23990;SDS011;12205;50.600;4.608;2022-08-01T13:28:24;3.70;;;1.13;;
23990;SDS011;12205;50.600;4.608;2022-08-01T13:30:57;2.38;;;0.77;;
23990;SDS011;12205;50.600;4.608;2022-08-01T13:33:39;3.28;;;1.13;;
23990;SDS011;12205;50.600;4.608;2022-08-01T13:36:08;4.32;;;1.35;;
23990;SDS011;12205;50.600;4.608;2022-08-01T13:38:36;3.03;;;0.80;;
23990;SDS011;12205;50.600;4.608;2022-08-01T13:41:21;10.93;;;1.70;;
23990;SDS011;12205;50.600;4.608;2022-08-01T13:43:49;4.00;;;1.40;;
23990;SDS011;12205;50.600;4.608;2022-08-01T13:46:17;3.92;;;0.90;;
23990;SDS011;12205;50.600;4.608;2022-08-01T13:48:44;6.97;;;2.15;;
23990;SDS011;12205;50.600;4.608;2022-08-01T13:51:12;2.83;;;0.82;;
23990;SDS011;12205;50.600;4.608;2022-08-01T13:53:39;3.92;;;1.27;;
23990;SDS011;12205;50.600;4.608;2022-08-01T13:56:08;5.75;;;1.50;;
23990;SDS011;12205;50.600;4.608;2022-08-01T13:58:36;4.97;;;1.52;;
23990;SDS011;12205;50.600;4.608;2022-08-01T14:01:10;4.82;;;1.58;;
23990;SDS011;12205;50.600;4.608;2022-08-01T14:03:37;3.13;;;1.08;;
23990;SDS011;12205;50.600;4.608;2022-08-01T14:06:05;6.15;;;1.65;;
23990;SDS011;12205;50.600;4.608;2022-08-01T14:08:32;5.20;;;1.50;;
23990;SDS011;12205;50.600;4.608;2022-08-01T14:11:00;16.00;;;4.38;;
23990;SDS011;12205;50.600;4.608;2022-08-01T14:13:27;14.52;;;3.28;;
23990;SDS011;12205;50.600;4.608;2022-08-01T14:15:54;5.57;;;1.65;;
23990;SDS011;12205;50.600;4.608;2022-08-01T14:18:23;4.25;;;1.30;;
23990;SDS011;12205;50.600;4.608;2022-08-01T14:20:51;4.07;;;1.10;;
23990;SDS011;12205;50.600;4.608;2022-08-01T14:23:18;3.85;;;1.13;;
23990;SDS011;12205;50.600;4.608;2022-08-01T14:25:45;5.88;;;1.45;;
23990;SDS011;12205;50.600;4.608;2022-08-01T14:28:12;4.60;;;1.40;;
23990;SDS011;12205;50.600;4.608;2022-08-01T14:30:39;14.10;;;2.83;;
23990;SDS011;12205;50.600;4.608;2022-08-01T14:33:07;24.65;;;6.93;;
23990;SDS011;12205;50.600;4.608;2022-08-01T14:35:36;16.05;;;3.78;;
23990;SDS011;12205;50.600;4.608;2022-08-01T14:38:03;18.30;;;5.55;;
23990;SDS011;12205;50.600;4.608;2022-08-01T14:40:31;19.92;;;5.45;;
23990;SDS011;12205;50.600;4.608;2022-08-01T14:42:58;17.13;;;4.80;;
23990;SDS011;12205;50.600;4.608;2022-08-01T14:45:26;8.20;;;2.65;;
23990;SDS011;12205;50.600;4.608;2022-08-01T14:47:54;18.02;;;4.90;;
23990;SDS011;12205;50.600;4.608;2022-08-01T14:50:21;15.82;;;4.70;;
23990;SDS011;12205;50.600;4.608;2022-08-01T14:52:50;21.77;;;6.18;;
23990;SDS011;12205;50.600;4.608;2022-08-01T14:55:17;19.23;;;5.60;;
23990;SDS011;12205;50.600;4.608;2022-08-01T14:57:48;9.60;;;2.83;;
23990;SDS011;12205;50.600;4.608;2022-08-01T15:00:16;25.00;;;8.68;;
23990;SDS011;12205;50.600;4.608;2022-08-01T15:02:45;16.13;;;4.00;;
23990;SDS011;12205;50.600;4.608;2022-08-01T15:05:12;17.10;;;4.95;;
23990;SDS011;12205;50.600;4.608;2022-08-01T15:07:39;19.90;;;5.90;;
23990;SDS011;12205;50.600;4.608;2022-08-01T15:10:08;23.40;;;6.68;;
23990;SDS011;12205;50.600;4.608;2022-08-01T15:12:36;19.42;;;6.55;;
23990;SDS011;12205;50.600;4.608;2022-08-01T15:15:04;23.88;;;7.07;;